sensor_id;sensor_type;location;lat;lon;timestamp;pressure;altitude;pressure_sealevel;temperature;humidity
47154;BME280;32907;41.412;2.164;2023-03-14T00:01:19;99821.72;;;21.49;30.51
47154;BME280;32907;41.412;2.164;2023-03-14T00:03:48;99856.44;;;21.66;30.53
47154;BME280;32907;41.412;2.164;2023-03-14T00:06:16;99822.34;;;21.46;30.48
47154;BME280;32907;41.412;2.164;2023-03-14T00:08:46;99838.59;;;21.52;30.91
47154;BME280;32907;41.412;2.164;2023-03-14T00:11:17;99870.72;;;21.72;30.69
47154;BME280;32907;41.412;2.164;2023-03-14T00:13:49;99764.78;;;21.00;30.50
47154;BME280;32907;41.412;2.164;2023-03-14T00:16:19;99882.28;;;21.69;31.24
47154;BME280;32907;41.412;2.164;2023-03-14T00:18:47;99873.25;;;21.60;31.58
47154;BME280;32907;41.412;2.164;2023-03-14T00:21:15;99885.00;;;21.69;32.09
47154;BME280;32907;41.412;2.164;2023-03-14T00:23:45;99894.94;;;21.65;31.74
47154;BME280;32907;41.412;2.164;2023-03-14T00:26:15;99911.00;;;21.66;31.67
47154;BME280;32907;41.412;2.164;2023-03-14T00:28:44;99927.06;;;21.68;31.78
47154;BME280;32907;41.412;2.164;2023-03-14T00:31:14;99926.84;;;21.56;31.73
47154;BME280;32907;41.412;2.164;2023-03-14T00:33:44;99930.22;;;21.53;31.75
47154;BME280;32907;41.412;2.164;2023-03-14T00:36:16;99948.53;;;21.61;31.78
47154;BME280;32907;41.412;2.164;2023-03-14T00:38:46;99911.84;;;21.36;32.13
47154;BME280;32907;41.412;2.164;2023-03-14T00:41:18;99935.78;;;21.47;32.22
47154;BME280;32907;41.412;2.164;2023-03-14T00:43:47;99918.38;;;21.26;32.43
47154;BME280;32907;41.412;2.164;2023-03-14T00:46:15;99950.19;;;21.39;32.26
47154;BME280;32907;41.412;2.164;2023-03-14T00:48:46;99960.22;;;21.53;32.38
47154;BME280;32907;41.412;2.164;2023-03-14T00:51:14;99979.78;;;21.55;32.11
47154;BME280;32907;41.412;2.164;2023-03-14T00:53:45;99945.63;;;21.26;32.20
47154;BME280;32907;41.412;2.164;2023-03-14T00:56:13;99966.84;;;21.29;32.04
47154;BME280;32907;41.412;2.164;2023-03-14T00:58:42;99991.00;;;21.44;31.73
47154;BME280;32907;41.412;2.164;2023-03-14T01:01:14;100020.72;;;21.55;31.74
47154;BME280;32907;41.412;2.164;2023-03-14T01:03:45;100040.94;;;21.54;31.99
47154;BME280;32907;41.412;2.164;2023-03-14T01:06:18;100035.78;;;21.52;31.72
47154;BME280;32907;41.412;2.164;2023-03-14T01:08:47;100018.25;;;21.44;32.13
47154;BME280;32907;41.412;2.164;2023-03-14T01:11:29;100005.88;;;21.38;31.88
47154;BME280;32907;41.412;2.164;2023-03-14T01:13:58;99976.38;;;21.18;32.35
47154;BME280;32907;41.412;2.164;2023-03-14T01:16:30;99972.09;;;21.26;32.27
47154;BME280;32907;41.412;2.164;2023-03-14T01:19:02;99957.38;;;21.04;31.25
47154;BME280;32907;41.412;2.164;2023-03-14T01:21:33;100011.69;;;21.45;30.94
47154;BME280;32907;41.412;2.164;2023-03-14T01:24:03;99932.97;;;20.99;31.46
47154;BME280;32907;41.412;2.164;2023-03-14T01:26:33;99991.06;;;21.31;32.44
47154;BME280;32907;41.412;2.164;2023-03-14T01:29:04;100003.91;;;21.30;34.10
47154;BME280;32907;41.412;2.164;2023-03-14T01:31:35;100046.03;;;21.46;36.74
47154;BME280;32907;41.412;2.164;2023-03-14T01:34:03;100019.13;;;21.31;37.94
47154;BME280;32907;41.412;2.164;2023-03-14T01:36:31;100043.94;;;21.43;38.60
47154;BME280;32907;41.412;2.164;2023-03-14T01:39:01;100043.41;;;21.41;39.44
47154;BME280;32907;41.412;2.164;2023-03-14T01:41:29;100035.50;;;21.31;39.99
47154;BME280;32907;41.412;2.164;2023-03-14T01:43:58;100050.75;;;21.32;40.30
47154;BME280;32907;41.412;2.164;2023-03-14T01:46:45;100030.91;;;21.18;41.54
47154;BME280;32907;41.412;2.164;2023-03-14T01:49:26;100002.06;;;20.94;41.62
47154;BME280;32907;41.412;2.164;2023-03-14T01:52:27;99983.88;;;20.67;41.86
47154;BME280;32907;41.412;2.164;2023-03-14T01:55:04;99801.16;;;19.74;42.06
47154;BME280;32907;41.412;2.164;2023-03-14T01:57:37;100031.94;;;21.08;41.94
47154;BME280;32907;41.412;2.164;2023-03-14T02:00:13;100043.69;;;21.31;41.93
47154;BME280;32907;41.412;2.164;2023-03-14T02:02:53;100017.41;;;21.13;41.65
47154;BME280;32907;41.412;2.164;2023-03-14T02:05:31;99989.88;;;21.01;41.15
47154;BME280;32907;41.412;2.164;2023-03-14T02:08:11;99984.53;;;20.87;40.32
47154;BME280;32907;41.412;2.164;2023-03-14T02:10:49;100012.69;;;21.05;39.12
47154;BME280;32907;41.412;2.164;2023-03-14T02:13:29;100062.88;;;21.26;38.72
47154;BME280;32907;41.412;2.164;2023-03-14T02:16:16;100044.03;;;21.16;37.60
47154;BME280;32907;41.412;2.164;2023-03-14T02:19:04;100030.16;;;21.04;36.04
47154;BME280;32907;41.412;2.164;2023-03-14T02:22:10;100045.63;;;21.17;35.03
47154;BME280;32907;41.412;2.164;2023-03-14T02:27:52;100061.41;;;21.20;34.16
47154;BME280;32907;41.412;2.164;2023-03-14T02:30:24;100048.19;;;21.13;35.52
47154;BME280;32907;41.412;2.164;2023-03-14T02:33:01;99988.47;;;20.81;36.79
47154;BME280;32907;41.412;2.164;2023-03-14T02:35:39;100029.78;;;21.19;38.13
47154;BME280;32907;41.412;2.164;2023-03-14T02:38:29;100045.97;;;21.15;39.81
47154;BME280;32907;41.412;2.164;2023-03-14T02:41:01;100042.75;;;21.13;40.11
47154;BME280;32907;41.412;2.164;2023-03-14T02:43:33;100041.44;;;21.11;40.57
47154;BME280;32907;41.412;2.164;2023-03-14T02:46:05;100037.72;;;21.07;40.60
47154;BME280;32907;41.412;2.164;2023-03-14T02:48:46;100000.59;;;20.75;40.77
47154;BME280;32907;41.412;2.164;2023-03-14T02:51:17;100041.88;;;21.04;40.46
47154;BME280;32907;41.412;2.164;2023-03-14T02:53:47;100041.66;;;21.01;39.89
47154;BME280;32907;41.412;2.164;2023-03-14T02:56:15;100051.03;;;21.08;39.46
47154;BME280;32907;41.412;2.164;2023-03-14T02:58:44;100026.38;;;20.91;38.53
47154;BME280;32907;41.412;2.164;2023-03-14T03:01:22;99929.50;;;20.26;38.07
47154;BME280;32907;41.412;2.164;2023-03-14T03:03:50;99983.50;;;20.60;36.78
47154;BME280;32907;41.412;2.164;2023-03-14T03:06:19;100019.25;;;20.81;36.21
47154;BME280;32907;41.412;2.164;2023-03-14T03:08:47;100045.84;;;20.98;35.46
47154;BME280;32907;41.412;2.164;2023-03-14T03:11:15;100060.75;;;21.01;35.43
47154;BME280;32907;41.412;2.164;2023-03-14T03:13:43;99965.78;;;20.49;34.66
47154;BME280;32907;41.412;2.164;2023-03-14T03:16:12;100001.53;;;20.70;34.45
47154;BME280;32907;41.412;2.164;2023-03-14T03:18:43;100033.31;;;20.97;34.12
47154;BME280;32907;41.412;2.164;2023-03-14T03:21:11;100037.22;;;21.05;33.95
47154;BME280;32907;41.412;2.164;2023-03-14T03:23:39;100027.69;;;20.93;33.36
47154;BME280;32907;41.412;2.164;2023-03-14T03:26:09;100004.72;;;20.86;33.70
47154;BME280;32907;41.412;2.164;2023-03-14T03:28:38;99963.13;;;20.58;32.95
47154;BME280;32907;41.412;2.164;2023-03-14T03:31:10;100038.47;;;20.99;32.81
47154;BME280;32907;41.412;2.164;2023-03-14T03:33:40;100024.06;;;20.84;32.36
47154;BME280;32907;41.412;2.164;2023-03-14T03:36:09;100032.06;;;20.81;32.34
47154;BME280;32907;41.412;2.164;2023-03-14T03:38:39;100057.16;;;20.91;31.77
47154;BME280;32907;41.412;2.164;2023-03-14T03:41:07;100047.78;;;20.84;32.06
47154;BME280;32907;41.412;2.164;2023-03-14T03:43:35;100052.44;;;20.83;32.00
47154;BME280;32907;41.412;2.164;2023-03-14T03:46:06;100083.00;;;20.94;31.95
47154;BME280;32907;41.412;2.164;2023-03-14T03:48:35;100078.97;;;20.91;32.07
47154;BME280;32907;41.412;2.164;2023-03-14T03:51:06;100029.63;;;20.57;30.95
47154;BME280;32907;41.412;2.164;2023-03-14T03:53:35;100014.50;;;20.51;31.42
47154;BME280;32907;41.412;2.164;2023-03-14T03:56:09;100056.69;;;20.76;31.32
47154;BME280;32907;41.412;2.164;2023-03-14T03:58:37;100063.16;;;20.80;30.62
47154;BME280;32907;41.412;2.164;2023-03-14T04:01:06;100032.34;;;20.57;29.70
47154;BME280;32907;41.412;2.164;2023-03-14T04:03:36;100064.47;;;20.82;30.35
47154;BME280;32907;41.412;2.164;2023-03-14T04:06:12;100069.91;;;20.82;30.23
47154;BME280;32907;41.412;2.164;2023-03-14T04:08:43;100054.19;;;20.79;30.98
47154;BME280;32907;41.412;2.164;2023-03-14T04:11:22;100047.25;;;20.73;30.80
47154;BME280;32907;41.412;2.164;2023-03-14T04:14:04;100064.56;;;20.77;30.35
47154;BME280;32907;41.412;2.164;2023-03-14T04:16:33;100039.72;;;20.56;30.53
47154;BME280;32907;41.412;2.164;2023-03-14T04:19:08;100059.75;;;20.74;30.13
47154;BME280;32907;41.412;2.164;2023-03-14T04:21:37;100060.06;;;20.73;30.80
47154;BME280;32907;41.412;2.164;2023-03-14T04:24:11;100016.91;;;20.52;30.22
47154;BME280;32907;41.412;2.164;2023-03-14T04:26:41;100055.50;;;20.68;30.54
47154;BME280;32907;41.412;2.164;2023-03-14T04:29:10;100055.50;;;20.68;30.64
47154;BME280;32907;41.412;2.164;2023-03-14T04:31:41;100070.47;;;20.71;30.36
47154;BME280;32907;41.412;2.164;2023-03-14T04:34:10;100007.88;;;20.29;30.57
47154;BME280;32907;41.412;2.164;2023-03-14T04:36:44;100036.41;;;20.46;30.23
47154;BME280;32907;41.412;2.164;2023-03-14T04:39:19;100064.41;;;20.60;30.76
47154;BME280;32907;41.412;2.164;2023-03-14T04:41:56;100034.88;;;20.39;30.81
47154;BME280;32907;41.412;2.164;2023-03-14T04:44:23;100065.94;;;20.52;30.61
47154;BME280;32907;41.412;2.164;2023-03-14T04:46:53;100090.75;;;20.64;31.02
47154;BME280;32907;41.412;2.164;2023-03-14T04:49:21;100080.38;;;20.53;30.88
47154;BME280;32907;41.412;2.164;2023-03-14T04:51:49;100105.00;;;20.61;30.66
47154;BME280;32907;41.412;2.164;2023-03-14T04:54:21;100076.44;;;20.45;30.99
47154;BME280;32907;41.412;2.164;2023-03-14T04:56:54;100115.44;;;20.68;30.45
47154;BME280;32907;41.412;2.164;2023-03-14T04:59:22;100076.97;;;20.47;31.18
47154;BME280;32907;41.412;2.164;2023-03-14T05:01:52;100102.63;;;20.68;31.61
47154;BME280;32907;41.412;2.164;2023-03-14T05:04:43;100079.16;;;20.59;31.01
47154;BME280;32907;41.412;2.164;2023-03-14T05:07:24;100073.31;;;20.52;30.68
47154;BME280;32907;41.412;2.164;2023-03-14T05:10:15;100084.00;;;20.48;30.72
47154;BME280;32907;41.412;2.164;2023-03-14T05:12:54;100035.59;;;20.18;30.82
47154;BME280;32907;41.412;2.164;2023-03-14T05:16:08;100097.31;;;20.50;30.64
47154;BME280;32907;41.412;2.164;2023-03-14T05:19:01;100114.69;;;20.54;30.59
47154;BME280;32907;41.412;2.164;2023-03-14T05:21:47;100114.16;;;20.52;31.26
47154;BME280;32907;41.412;2.164;2023-03-14T05:24:41;100091.66;;;20.32;31.46
47154;BME280;32907;41.412;2.164;2023-03-14T05:27:23;100108.00;;;20.32;30.62
47154;BME280;32907;41.412;2.164;2023-03-14T05:30:02;100091.97;;;20.17;31.41
47154;BME280;32907;41.412;2.164;2023-03-14T05:32:37;100105.59;;;20.31;31.39
47154;BME280;32907;41.412;2.164;2023-03-14T05:35:37;100113.44;;;20.32;32.09
47154;BME280;32907;41.412;2.164;2023-03-14T05:38:23;100072.09;;;20.03;32.13
47154;BME280;32907;41.412;2.164;2023-03-14T05:41:03;100127.78;;;20.38;31.98
47154;BME280;32907;41.412;2.164;2023-03-14T05:43:50;100138.84;;;20.42;31.63
47154;BME280;32907;41.412;2.164;2023-03-14T05:46:44;100141.00;;;20.45;32.18
47154;BME280;32907;41.412;2.164;2023-03-14T05:49:28;100134.16;;;20.47;32.39
47154;BME280;32907;41.412;2.164;2023-03-14T05:52:07;100132.25;;;20.48;32.22
47154;BME280;32907;41.412;2.164;2023-03-14T05:54:56;100103.56;;;20.36;32.29
47154;BME280;32907;41.412;2.164;2023-03-14T05:57:44;100086.25;;;20.46;32.80
47154;BME280;32907;41.412;2.164;2023-03-14T06:00:35;100092.38;;;20.52;33.45
47154;BME280;32907;41.412;2.164;2023-03-14T06:03:18;100088.03;;;20.51;32.97
47154;BME280;32907;41.412;2.164;2023-03-14T06:05:50;100089.66;;;20.52;32.92
47154;BME280;32907;41.412;2.164;2023-03-14T06:08:20;99949.75;;;19.70;33.05
47154;BME280;32907;41.412;2.164;2023-03-14T06:10:47;100071.41;;;20.38;32.50
47154;BME280;32907;41.412;2.164;2023-03-14T06:13:15;100056.75;;;20.34;32.32
47154;BME280;32907;41.412;2.164;2023-03-14T06:15:45;100070.59;;;20.52;32.96
47154;BME280;32907;41.412;2.164;2023-03-14T06:18:13;99998.13;;;20.01;33.14
47154;BME280;32907;41.412;2.164;2023-03-14T06:20:42;100038.81;;;20.33;33.39
47154;BME280;32907;41.412;2.164;2023-03-14T06:23:15;100080.25;;;20.58;33.41
47154;BME280;32907;41.412;2.164;2023-03-14T06:25:43;100051.00;;;20.36;33.68
47154;BME280;32907;41.412;2.164;2023-03-14T06:28:10;100077.78;;;20.48;32.88
47154;BME280;32907;41.412;2.164;2023-03-14T06:30:38;100083.09;;;20.53;33.10
47154;BME280;32907;41.412;2.164;2023-03-14T06:33:09;100082.81;;;20.54;33.53
47154;BME280;32907;41.412;2.164;2023-03-14T06:35:37;100077.16;;;20.51;32.95
47154;BME280;32907;41.412;2.164;2023-03-14T06:38:05;100095.63;;;20.54;32.10
47154;BME280;32907;41.412;2.164;2023-03-14T06:40:33;100073.72;;;20.31;32.91
47154;BME280;32907;41.412;2.164;2023-03-14T06:43:11;100044.97;;;20.11;31.91
47154;BME280;32907;41.412;2.164;2023-03-14T06:45:42;100060.81;;;20.09;32.58
47154;BME280;32907;41.412;2.164;2023-03-14T06:48:10;100118.13;;;20.46;32.75
47154;BME280;32907;41.412;2.164;2023-03-14T06:50:44;100127.38;;;20.45;32.42
47154;BME280;32907;41.412;2.164;2023-03-14T06:53:13;100076.34;;;20.23;32.35
47154;BME280;32907;41.412;2.164;2023-03-14T06:55:44;100038.13;;;20.00;32.78
47154;BME280;32907;41.412;2.164;2023-03-14T06:58:15;100114.97;;;20.38;32.64
47154;BME280;32907;41.412;2.164;2023-03-14T07:00:45;100094.50;;;20.14;32.46
47154;BME280;32907;41.412;2.164;2023-03-14T07:03:18;100115.25;;;20.37;32.49
47154;BME280;32907;41.412;2.164;2023-03-14T07:05:49;100129.97;;;20.36;32.42
47154;BME280;32907;41.412;2.164;2023-03-14T07:08:17;100126.84;;;20.29;32.05
47154;BME280;32907;41.412;2.164;2023-03-14T07:10:45;100133.53;;;20.23;32.02
47154;BME280;32907;41.412;2.164;2023-03-14T07:13:13;100098.31;;;19.99;32.11
47154;BME280;32907;41.412;2.164;2023-03-14T07:15:57;100140.56;;;20.24;32.51
47154;BME280;32907;41.412;2.164;2023-03-14T07:18:24;100061.22;;;19.75;31.91
47154;BME280;32907;41.412;2.164;2023-03-14T07:20:52;100123.34;;;20.15;31.92
47154;BME280;32907;41.412;2.164;2023-03-14T07:23:20;100148.03;;;20.18;31.82
47154;BME280;32907;41.412;2.164;2023-03-14T07:25:52;100158.84;;;20.23;32.58
47154;BME280;32907;41.412;2.164;2023-03-14T07:28:23;100079.75;;;19.73;31.81
47154;BME280;32907;41.412;2.164;2023-03-14T07:30:57;100070.25;;;19.71;32.04
47154;BME280;32907;41.412;2.164;2023-03-14T07:33:31;100127.34;;;19.90;32.61
47154;BME280;32907;41.412;2.164;2023-03-14T07:35:59;100155.59;;;20.07;32.90
47154;BME280;32907;41.412;2.164;2023-03-14T07:38:29;100163.63;;;20.12;33.26
47154;BME280;32907;41.412;2.164;2023-03-14T07:41:15;100133.88;;;19.89;33.44
47154;BME280;32907;41.412;2.164;2023-03-14T07:44:02;100133.00;;;20.07;33.43
47154;BME280;32907;41.412;2.164;2023-03-14T07:46:30;100148.75;;;20.24;33.12
47154;BME280;32907;41.412;2.164;2023-03-14T07:48:58;100155.41;;;20.31;33.41
47154;BME280;32907;41.412;2.164;2023-03-14T07:51:26;100141.47;;;20.19;33.10
47154;BME280;32907;41.412;2.164;2023-03-14T07:53:54;100171.84;;;20.40;33.15
47154;BME280;32907;41.412;2.164;2023-03-14T07:56:22;100171.34;;;20.38;33.16
47154;BME280;32907;41.412;2.164;2023-03-14T07:58:49;100178.03;;;20.46;32.29
47154;BME280;32907;41.412;2.164;2023-03-14T08:01:17;100183.63;;;20.35;32.73
47154;BME280;32907;41.412;2.164;2023-03-14T08:03:45;100199.72;;;20.51;32.81
47154;BME280;32907;41.412;2.164;2023-03-14T08:06:13;100177.88;;;20.37;32.51
47154;BME280;32907;41.412;2.164;2023-03-14T08:08:41;100187.97;;;20.23;32.74
47154;BME280;32907;41.412;2.164;2023-03-14T08:11:09;100226.53;;;20.44;32.47
47154;BME280;32907;41.412;2.164;2023-03-14T08:13:38;100209.88;;;20.31;32.23
47154;BME280;32907;41.412;2.164;2023-03-14T08:16:08;100233.19;;;20.51;43.19
47154;BME280;32907;41.412;2.164;2023-03-14T08:18:36;100217.78;;;20.60;35.82
47154;BME280;32907;41.412;2.164;2023-03-14T08:21:04;100206.78;;;20.52;34.43
47154;BME280;32907;41.412;2.164;2023-03-14T08:23:32;100199.31;;;20.44;33.53
47154;BME280;32907;41.412;2.164;2023-03-14T08:26:00;100210.59;;;20.51;33.88
47154;BME280;32907;41.412;2.164;2023-03-14T08:28:28;100246.75;;;20.70;33.26
47154;BME280;32907;41.412;2.164;2023-03-14T08:30:58;100233.72;;;20.67;33.06
47154;BME280;32907;41.412;2.164;2023-03-14T08:33:27;100258.53;;;20.65;33.20
47154;BME280;32907;41.412;2.164;2023-03-14T08:35:59;100234.53;;;20.54;32.65
47154;BME280;32907;41.412;2.164;2023-03-14T08:38:28;100252.28;;;20.65;32.96
47154;BME280;32907;41.412;2.164;2023-03-14T08:40:58;100267.53;;;20.66;32.80
47154;BME280;32907;41.412;2.164;2023-03-14T08:43:30;100237.78;;;20.70;33.16
47154;BME280;32907;41.412;2.164;2023-03-14T08:46:00;100233.53;;;20.63;33.47
47154;BME280;32907;41.412;2.164;2023-03-14T08:48:29;100265.22;;;20.73;33.08
47154;BME280;32907;41.412;2.164;2023-03-14T08:51:11;100226.25;;;20.59;32.70
47154;BME280;32907;41.412;2.164;2023-03-14T08:53:41;100242.59;;;20.59;32.62
47154;BME280;32907;41.412;2.164;2023-03-14T08:56:09;100251.47;;;20.51;33.04
47154;BME280;32907;41.412;2.164;2023-03-14T08:58:38;100223.09;;;20.38;32.08
47154;BME280;32907;41.412;2.164;2023-03-14T09:01:08;100233.59;;;20.45;33.07
47154;BME280;32907;41.412;2.164;2023-03-14T09:03:37;100285.41;;;20.72;32.86
47154;BME280;32907;41.412;2.164;2023-03-14T09:06:08;100263.81;;;20.62;33.02
47154;BME280;32907;41.412;2.164;2023-03-14T09:08:36;100291.66;;;20.73;32.56
47154;BME280;32907;41.412;2.164;2023-03-14T09:11:09;100289.81;;;20.68;32.23
47154;BME280;32907;41.412;2.164;2023-03-14T09:13:37;100221.94;;;20.25;32.50
47154;BME280;32907;41.412;2.164;2023-03-14T09:16:05;100306.81;;;20.79;32.66
47154;BME280;32907;41.412;2.164;2023-03-14T09:18:35;100281.34;;;20.56;32.41
47154;BME280;32907;41.412;2.164;2023-03-14T09:21:03;100285.19;;;20.55;32.20
47154;BME280;32907;41.412;2.164;2023-03-14T09:23:31;100295.97;;;20.46;32.16
47154;BME280;32907;41.412;2.164;2023-03-14T09:26:00;100330.31;;;20.75;32.35
47154;BME280;32907;41.412;2.164;2023-03-14T09:28:28;100274.16;;;20.46;32.80
47154;BME280;32907;41.412;2.164;2023-03-14T09:30:56;100274.03;;;20.37;32.24
47154;BME280;32907;41.412;2.164;2023-03-14T09:33:24;100345.16;;;20.82;31.74
47154;BME280;32907;41.412;2.164;2023-03-14T09:35:51;100316.25;;;20.54;32.19
47154;BME280;32907;41.412;2.164;2023-03-14T09:38:19;100347.56;;;20.84;32.81
47154;BME280;32907;41.412;2.164;2023-03-14T09:40:48;100354.06;;;20.88;32.49
47154;BME280;32907;41.412;2.164;2023-03-14T09:43:16;100320.31;;;20.70;32.51
47154;BME280;32907;41.412;2.164;2023-03-14T09:45:47;100339.63;;;20.87;32.11
47154;BME280;32907;41.412;2.164;2023-03-14T09:48:19;100333.75;;;20.80;32.32
47154;BME280;32907;41.412;2.164;2023-03-14T09:50:54;100359.09;;;20.94;32.46
47154;BME280;32907;41.412;2.164;2023-03-14T09:53:39;100293.94;;;20.52;32.52
47154;BME280;32907;41.412;2.164;2023-03-14T09:56:21;100343.66;;;20.90;32.41
47154;BME280;32907;41.412;2.164;2023-03-14T09:59:03;100361.13;;;21.03;32.57
47154;BME280;32907;41.412;2.164;2023-03-14T10:01:33;100364.38;;;21.05;32.57
47154;BME280;32907;41.412;2.164;2023-03-14T10:04:09;100332.25;;;20.88;32.30
47154;BME280;32907;41.412;2.164;2023-03-14T10:06:37;100303.66;;;20.72;32.01
47154;BME280;32907;41.412;2.164;2023-03-14T10:09:05;100311.72;;;20.77;32.21
47154;BME280;32907;41.412;2.164;2023-03-14T10:11:33;100351.84;;;21.04;32.11
47154;BME280;32907;41.412;2.164;2023-03-14T10:14:05;100363.66;;;21.13;32.91
47154;BME280;32907;41.412;2.164;2023-03-14T10:16:37;100353.88;;;21.12;32.63
47154;BME280;32907;41.412;2.164;2023-03-14T10:19:13;100363.75;;;21.21;33.05
47154;BME280;32907;41.412;2.164;2023-03-14T10:21:43;100348.91;;;21.14;32.04
47154;BME280;32907;41.412;2.164;2023-03-14T10:27:27;100367.22;;;21.27;32.88
47154;BME280;32907;41.412;2.164;2023-03-14T10:30:04;100370.47;;;21.29;32.81
47154;BME280;32907;41.412;2.164;2023-03-14T10:32:36;100357.50;;;21.21;32.52
47154;BME280;32907;41.412;2.164;2023-03-14T10:35:17;100369.03;;;21.32;32.22
47154;BME280;32907;41.412;2.164;2023-03-14T10:38:00;100331.25;;;21.11;32.45
47154;BME280;32907;41.412;2.164;2023-03-14T10:40:34;100356.81;;;21.29;32.09
47154;BME280;32907;41.412;2.164;2023-03-14T10:43:11;100306.63;;;21.03;31.92
47154;BME280;32907;41.412;2.164;2023-03-14T10:45:43;100346.50;;;21.26;32.42
47154;BME280;32907;41.412;2.164;2023-03-14T10:48:31;100286.41;;;21.04;32.17
47154;BME280;32907;41.412;2.164;2023-03-14T10:53:46;100330.94;;;21.40;31.92
47154;BME280;32907;41.412;2.164;2023-03-14T10:56:19;100344.97;;;21.47;31.79
47154;BME280;32907;41.412;2.164;2023-03-14T10:58:52;100344.38;;;21.50;31.93
47154;BME280;32907;41.412;2.164;2023-03-14T11:06:47;100346.19;;;21.41;30.84
47154;BME280;32907;41.412;2.164;2023-03-14T11:09:28;100341.94;;;21.49;30.78
47154;BME280;32907;41.412;2.164;2023-03-14T11:12:27;100329.81;;;21.41;30.55
47154;BME280;32907;41.412;2.164;2023-03-14T11:15:04;100291.66;;;21.14;30.76
47154;BME280;32907;41.412;2.164;2023-03-14T11:17:53;100315.09;;;21.42;31.04
47154;BME280;32907;41.412;2.164;2023-03-14T11:26:40;100292.34;;;21.33;31.08
47154;BME280;32907;41.412;2.164;2023-03-14T11:31:55;100313.13;;;21.57;31.54
47154;BME280;32907;41.412;2.164;2023-03-14T11:34:37;100333.75;;;21.63;31.35
47154;BME280;32907;41.412;2.164;2023-03-14T11:39:45;100291.13;;;21.39;31.28
47154;BME280;32907;41.412;2.164;2023-03-14T11:42:16;100340.94;;;21.59;31.04
47154;BME280;32907;41.412;2.164;2023-03-14T11:44:48;100312.38;;;21.42;30.71
47154;BME280;32907;41.412;2.164;2023-03-14T11:47:37;100319.69;;;21.56;30.44
47154;BME280;32907;41.412;2.164;2023-03-14T11:50:24;100217.97;;;20.91;30.51
47154;BME280;32907;41.412;2.164;2023-03-14T11:52:58;100303.78;;;21.35;30.75
47154;BME280;32907;41.412;2.164;2023-03-14T11:55:32;100325.47;;;21.54;30.73
47154;BME280;32907;41.412;2.164;2023-03-14T11:58:50;100286.78;;;21.52;31.04
47154;BME280;32907;41.412;2.164;2023-03-14T12:01:14;100300.13;;;21.54;31.11
47154;BME280;32907;41.412;2.164;2023-03-14T12:03:57;100330.19;;;21.62;30.57
47154;BME280;32907;41.412;2.164;2023-03-14T12:09:04;100303.72;;;21.63;30.80
47154;BME280;32907;41.412;2.164;2023-03-14T12:12:02;100290.09;;;21.63;29.99
47154;BME280;32907;41.412;2.164;2023-03-14T12:14:36;100313.53;;;21.64;30.88
47154;BME280;32907;41.412;2.164;2023-03-14T12:17:17;100278.09;;;21.50;31.41
47154;BME280;32907;41.412;2.164;2023-03-14T12:19:46;100273.63;;;21.54;31.49
47154;BME280;32907;41.412;2.164;2023-03-14T12:22:41;100268.81;;;21.51;31.73
47154;BME280;32907;41.412;2.164;2023-03-14T12:30:40;100291.97;;;21.76;31.97
47154;BME280;32907;41.412;2.164;2023-03-14T12:35:44;100250.13;;;21.44;32.39
47154;BME280;32907;41.412;2.164;2023-03-14T12:41:05;100283.03;;;21.84;32.60
47154;BME280;32907;41.412;2.164;2023-03-14T12:43:35;100251.78;;;21.68;32.98
47154;BME280;32907;41.412;2.164;2023-03-14T12:51:37;100240.53;;;21.69;31.62
47154;BME280;32907;41.412;2.164;2023-03-14T12:54:25;100270.91;;;21.90;32.62
47154;BME280;32907;41.412;2.164;2023-03-14T12:59:45;100255.81;;;21.93;32.29
47154;BME280;32907;41.412;2.164;2023-03-14T13:02:36;100269.16;;;21.94;32.42
47154;BME280;32907;41.412;2.164;2023-03-14T13:12:54;100241.72;;;21.99;31.33
47154;BME280;32907;41.412;2.164;2023-03-14T13:15:39;100225.25;;;21.82;27.96
47154;BME280;32907;41.412;2.164;2023-03-14T13:20:59;100225.59;;;21.89;29.83
47154;BME280;32907;41.412;2.164;2023-03-14T13:23:34;100214.81;;;21.84;29.93
47154;BME280;32907;41.412;2.164;2023-03-14T13:26:11;100202.41;;;21.78;29.73
47154;BME280;32907;41.412;2.164;2023-03-14T13:28:41;100242.69;;;22.03;29.82
47154;BME280;32907;41.412;2.164;2023-03-14T13:31:26;100226.63;;;22.02;29.93
47154;BME280;32907;41.412;2.164;2023-03-14T13:34:06;100210.91;;;21.99;29.57
47154;BME280;32907;41.412;2.164;2023-03-14T13:36:35;100166.06;;;21.69;29.27
47154;BME280;32907;41.412;2.164;2023-03-14T13:39:10;100209.34;;;22.06;28.95
47154;BME280;32907;41.412;2.164;2023-03-14T13:41:41;100192.03;;;21.89;29.18
47154;BME280;32907;41.412;2.164;2023-03-14T13:44:16;100205.59;;;22.02;29.12
47154;BME280;32907;41.412;2.164;2023-03-14T13:46:45;100210.44;;;22.05;29.31
47154;BME280;32907;41.412;2.164;2023-03-14T13:49:21;100124.06;;;21.56;29.28
47154;BME280;32907;41.412;2.164;2023-03-14T13:51:50;100146.31;;;21.72;29.04
47154;BME280;32907;41.412;2.164;2023-03-14T13:54:20;100196.38;;;22.12;28.28
47154;BME280;32907;41.412;2.164;2023-03-14T13:56:59;100177.31;;;21.98;28.27
47154;BME280;32907;41.412;2.164;2023-03-14T13:59:29;100194.28;;;22.09;28.85
47154;BME280;32907;41.412;2.164;2023-03-14T14:02:00;100191.09;;;22.16;29.41
47154;BME280;32907;41.412;2.164;2023-03-14T14:04:35;100195.06;;;22.10;30.42
47154;BME280;32907;41.412;2.164;2023-03-14T14:07:15;100198.78;;;22.14;30.79
47154;BME280;32907;41.412;2.164;2023-03-14T14:09:47;100158.47;;;21.88;31.06
47154;BME280;32907;41.412;2.164;2023-03-14T14:12:28;100179.59;;;22.05;31.26
47154;BME280;32907;41.412;2.164;2023-03-14T14:15:27;100180.78;;;22.13;31.53
47154;BME280;32907;41.412;2.164;2023-03-14T14:17:58;100227.56;;;22.20;31.57
47154;BME280;32907;41.412;2.164;2023-03-14T14:20:29;100192.59;;;22.22;31.71
47154;BME280;32907;41.412;2.164;2023-03-14T14:23:05;100197.22;;;22.21;29.89